Ride Results

Tom Quilty Gold Cup (01-10-1967)
Ride distance: 160.0 km

Outcomes - Tom Quilty Gold Cup (01-10-1967)
Division No. of Entries Retired / DNE Completed Withdrawn Ineligible V/O Percentage Completed
OP 24 - 18 3 - 3 75.00%
Totals 24 - 18 3 - 3 75.00%
Results - Tom Quilty Gold Cup (01-10-1967)
No. Rider Horse Place Time Leg Speeds Total
Km/Hr
H/R bpm
Open
2 Sam Timms Zig Zag 1 11:07:00 14.3, 13.1, 12.7, 20.5 14.39 0, 37, 45, 50, 49 (Avg:45)
3 Merle Hill Simba 2 11:11:00 14.1, 14.6, 12.2, 19.7 14.31 0, 60, 50, 66, 64 (Avg:60)
4 Robin Ryland Kelly 3 11:15:00 14.9, 12.4, 11.7, 21.0 14.22 0, 46, 41, 52, 64 (Avg:50)
22 Erica Williams Stormy 4 11:16:00 14.5, 12.8, 12.5, 18.6 14.20 0, 50, 52, 61, 50 (Avg:53)
24 Alwyn Torenbeek Steelo 5 11:18:00 14.4, 12.8, 12.5, 18.4 14.16 0, 49, 50, 53, 50 (Avg:50)
13 Pam Austin-Carroll William 6 11:20:00 14.4, 12.6, 12.2, 19.9 14.12 0, 54, 64, 67, 68 (Avg:63)
5 Les Bailey Granite 7 11:21:00 13.5, 13.5, 12.6, 21.0 14.10 0, 44, 46, 43, 69 (Avg:50)
6 Sue Scantlebury Rockybar Ghost 8 11:23:00 14.2, 12.9, 12.5, 18.0 14.06 0, 45, 46, 58, 53 (Avg:50)
7 Elizabeth Benedict Topi 9 12:28:00 14.9, 12.3, 10.9, 12.3 12.83 0, 45, 46, 48, 50 (Avg:47)
8 R.W. Keys Monarch 10 13:23:00 13.9, 14.4, 10.5, 9.3 11.96 0, 46, 69, 64, 65 (Avg:61)
9 Frank Bright Grey Boy 11 13:29:00 13.7, 13.8, 10.6, 9.3 11.87 0, 56, 51, 65, 38 (Avg:52)
1 Betty Serpell Rusty Miss 12 13:30:00 13.6, 13.8, 10.6, 9.3 11.85 0, 46, 50, 57, 48 (Avg:50)
10 B. Martin Katy 13 14:40:00 13.6, 13.4, 10.5, 6.8 10.91 0, 48, 70, 67, 63 (Avg:62)
11 Col Adams Spade 14 16:19:00 11.4, 9.1, 8.0, 10.2 9.81 0, 41, 40, 44, 44 (Avg:42)
23 Graeme Cameron Rosetia 15 16:57:00 9.6, 9.6, 8.3, 11.0 9.44 0, 41, 49, 58, 60 (Avg:52)
12 Pat Bowley Travel On 16 17:04:00 9.5, 9.6, 8.2, 11.0 9.38 0, 36, 41, 40, 48 (Avg:41)
21 Val Males Psyche 17 17:11:00 9.3, 9.5, 8.3, 11.0 9.31 0, 46, 48, 40, 53 (Avg:46)
20 Ron Males Shareym 18 17:12:00 10.0, 9.9, 7.4, 11.0 9.30 0, 40, 41, 44, 40 (Avg:41)
15 Rhoda Sayer Black Watch Heart Rate L4 0:00:00 14.6, 19.0, 9.6, 11.9 - 0, 67, 69, 70, 80 (Avg:71)
17 M Fitzpatrick Goldie Withdrawn L3 0:00:00 - - 0, 40, 42 (Avg:41)
16 S Spencer Springmead Lindi Amber Withdrawn L3 0:00:00 - - 0, 50, 47 (Avg:48)
14 Chris Neal Ros Big Red Withdrawn L2 0:00:00 - - 39, 45 (Avg:42)
18 Nh Smith Shane Heart Rate L2 0:00:00 14.1, 12.7 - 0, 62, 75 (Avg:68)
19 P Carrigan Sefri Lame L1 0:00:00 13.2 - 0, 60 (Avg:60)